Lammy — PBRE — position and weather

sailwx.info

Track history (hours):
 
Tides and Currents Weather Stations Pressure Air Temp Water Temp Dewpoint Dewpoint Depression Visibility Wind Speed Wind Dir Waves Ship Positions

Lammy

Last reported at 2014-Jul-29 19:23 UTC. Time now 2014-Jul-30 15:17 UTC.
Position N 57°12' E 008°39'.

Length 95 m; draft 5.8 m.

Type: Cargo ship. MMSI: 245391000.

Date/timePositionNaut miles runAvg speedWind from/ knotsBaromVisibWave heightAir tempDewpointWater temp
2014-Jul-29 19:23N 57°12' E 008°39'5511.4
2014-Jul-29 14:32N 57°40' E 010°08'1110.9
2014-Jul-29 13:33N 57°44' E 010°26'1010.3
2014-Jul-29 12:33N 57°47' E 010°45'1511.0
2014-Jul-29 11:11N 57°37' E 011°07'812.0
2014-Jul-29 10:33N 57°32' E 011°18'2411.8
2014-Jul-29 08:33N 57°11' E 011°38'1211.8
2014-Jul-29 07:33N 57°00' E 011°47'1211.8
2014-Jul-29 06:33N 56°50' E 011°56'1211.4
2014-Jul-29 05:33N 56°39' E 012°04'1111.5
2014-Jul-29 04:33N 56°29' E 012°13'1111.5
2014-Jul-29 03:33N 56°19' E 012°22'1211.6
2014-Jul-29 02:33N 56°08' E 012°32'1110.7
2014-Jul-29 01:33N 55°59' E 012°42'1110.9
2014-Jul-29 00:33N 55°48' E 012°43'1110.7
2014-Jul-28 23:33N 55°38' E 012°42'10 9.9
2014-Jul-28 22:33N 55°28' E 012°42'1010.0
2014-Jul-28 21:33N 55°18' E 012°45'1212.0
2014-Jul-28 20:33N 55°16' E 013°06'1212.4
2014-Jul-28 19:33N 55°15' E 013°27'1412.2
2014-Jul-28 18:23N 55°14' E 013°52'1012.3
2014-Jul-28 17:33N 55°14' E 014°10'1211.6
2014-Jul-28 16:33N 55°20' E 014°27'1212.2
2014-Jul-28 15:33N 55°29' E 014°42'1211.9
2014-Jul-28 14:33N 55°35' E 015°00'1212.2
2014-Jul-28 13:33N 55°42' E 015°19'1212.5
2014-Jul-28 12:33N 55°48' E 015°38'1312.7
2014-Jul-28 11:33N 55°54' E 015°58'1312.5
2014-Jul-28 10:33N 56°00' E 016°17'1812.3
2014-Jul-28 09:07N 56°10' E 016°43'812.3
2014-Jul-28 08:26N 56°18' E 016°49'1212.6
2014-Jul-28 07:27N 56°29' E 016°58'2512.2
2014-Jul-28 05:23N 56°53' E 017°16'1012.1
2014-Jul-28 04:33N 57°02' E 017°23'1212.0
2014-Jul-28 03:33N 57°13' E 017°31'1211.7
2014-Jul-28 02:33N 57°24' E 017°39'4711.7
2014-Jul-27 22:32N 58°06' E 018°20'1611.6
2014-Jul-27 21:11N 58°19' E 018°35'  
2014-Jul-23 02:28N 59°49' E 019°42'1712.4
2014-Jul-23 01:07N 59°37' E 020°04'4111.5
2014-Jul-22 21:33N 58°59' E 019°32'3112.4
2014-Jul-22 19:04N 58°33' E 019°01'612.1
2014-Jul-22 18:33N 58°28' E 018°55'2512.2
2014-Jul-22 16:30N 58°06' E 018°31'1212.1
2014-Jul-22 15:33N 57°56' E 018°20'1212.1
2014-Jul-22 14:33N 57°46' E 018°08'1211.9
2014-Jul-22 13:33N 57°36' E 017°57'1211.9
2014-Jul-22 12:34N 57°25' E 017°46'1212.1
2014-Jul-22 11:33N 57°14' E 017°37'1212.2
2014-Jul-22 10:33N 57°03' E 017°28'1212.5
2014-Jul-22 09:33N 56°52' E 017°18'1212.5
2014-Jul-22 08:33N 56°40' E 017°09'1412.3
2014-Jul-22 07:27N 56°28' E 016°60'1212.1
2014-Jul-22 06:29N 56°17' E 016°53'1111.9
2014-Jul-22 05:33N 56°06' E 016°48'1111.6
2014-Jul-22 04:33N 55°59' E 016°31'1211.6
2014-Jul-22 03:33N 55°53' E 016°14'1211.4
2014-Jul-22 02:31N 55°48' E 015°55'1111.3
2014-Jul-22 01:33N 55°42' E 015°38'1211.6
2014-Jul-22 00:33N 55°36' E 015°21'1211.6
2014-Jul-21 23:33N 55°30' E 015°03'1211.8
2014-Jul-21 22:33N 55°24' E 014°45'1211.7
2014-Jul-21 21:33N 55°16' E 014°30'1211.8
2014-Jul-21 20:33N 55°08' E 014°16'312.1
2014-Jul-21 20:18N 55°05' E 014°13'911.9
2014-Jul-21 19:33N 55°00' E 013°60'1411.7
2014-Jul-21 18:22N 54°55' E 013°38'1011.7
2014-Jul-21 17:32N 54°51' E 013°22'1111.2
2014-Jul-21 16:33N 54°46' E 013°05'1111.3
2014-Jul-21 15:33N 54°41' E 012°47'1111.3
2014-Jul-21 14:33N 54°35' E 012°30'1110.8
2014-Jul-21 13:33N 54°29' E 012°15'10 9.7
2014-Jul-21 12:33N 54°25' E 012°00'1110.5
2014-Jul-21 11:33N 54°26' E 011°42'1110.7
2014-Jul-21 10:33N 54°30' E 011°25'1010.2
2014-Jul-21 09:33N 54°34' E 011°09'1111.3
2014-Jul-21 08:34N 54°33' E 010°49'47 7.5
2014-Jul-21 02:21N 54°14' E 009°36'10 8.5
2014-Jul-21 01:09N 54°09' E 009°21'6 8.5
2014-Jul-21 00:28N 54°03' E 009°18'7 7.8
2014-Jul-20 23:33N 53°56' E 009°13'4 4.0
2014-Jul-20 22:33N 53°54' E 009°09'1 1.3
2014-Jul-20 21:32N 53°53' E 009°07'9 9.3
2014-Jul-20 20:33N 53°50' E 008°52'1111.0
2014-Jul-20 19:33N 53°57' E 008°37'1211.5
2014-Jul-20 18:33N 53°59' E 008°18'6613.1
2014-Jul-20 13:31N 53°45' E 006°29'1313.6
2014-Jul-20 12:33N 53°41' E 006°07'1313.5
2014-Jul-20 11:34N 53°37' E 005°46'1313.4
2014-Jul-20 10:33N 53°33' E 005°24'1313.2
2014-Jul-20 09:34N 53°29' E 005°03'2511.8
2014-Jul-20 07:25N 53°11' E 004°33'2311.8
2014-Jul-20 05:25N 52°51' E 004°13'1011.4
2014-Jul-20 04:31N 52°43' E 004°02'7111.5
2014-Jul-19 22:23N 51°50' E 002°44'2413.3
2014-Jul-19 20:33N 51°31' E 002°20'1313.5
2014-Jul-19 19:34N 51°20' E 002°09'  
Track history (hours):
 
Tides and Currents Weather Stations Pressure Air Temp Water Temp Dewpoint Dewpoint Depression Visibility Wind Speed Wind Dir Waves Ship Positions

Lammy

Last reported at 2014-Jul-29 19:23 UTC. Time now 2014-Jul-30 15:17 UTC.
Position N 57°12' E 008°39'.

Length 95 m; draft 5.8 m.

Type: Cargo ship. MMSI: 245391000.

Date/timePositionNaut miles runAvg speedWind from/ knotsBaromVisibWave heightAir tempDewpointWater temp
2014-Jul-29 19:23N 57°12' E 008°39'5511.4
2014-Jul-29 14:32N 57°40' E 010°08'1110.9
2014-Jul-29 13:33N 57°44' E 010°26'1010.3
2014-Jul-29 12:33N 57°47' E 010°45'1511.0
2014-Jul-29 11:11N 57°37' E 011°07'812.0
2014-Jul-29 10:33N 57°32' E 011°18'2411.8
2014-Jul-29 08:33N 57°11' E 011°38'1211.8
2014-Jul-29 07:33N 57°00' E 011°47'1211.8
2014-Jul-29 06:33N 56°50' E 011°56'1211.4
2014-Jul-29 05:33N 56°39' E 012°04'1111.5
2014-Jul-29 04:33N 56°29' E 012°13'1111.5
2014-Jul-29 03:33N 56°19' E 012°22'1211.6
2014-Jul-29 02:33N 56°08' E 012°32'1110.7
2014-Jul-29 01:33N 55°59' E 012°42'1110.9
2014-Jul-29 00:33N 55°48' E 012°43'1110.7
2014-Jul-28 23:33N 55°38' E 012°42'10 9.9
2014-Jul-28 22:33N 55°28' E 012°42'1010.0
2014-Jul-28 21:33N 55°18' E 012°45'1212.0
2014-Jul-28 20:33N 55°16' E 013°06'1212.4
2014-Jul-28 19:33N 55°15' E 013°27'1412.2
2014-Jul-28 18:23N 55°14' E 013°52'1012.3
2014-Jul-28 17:33N 55°14' E 014°10'1211.6
2014-Jul-28 16:33N 55°20' E 014°27'1212.2
2014-Jul-28 15:33N 55°29' E 014°42'1211.9
2014-Jul-28 14:33N 55°35' E 015°00'1212.2
2014-Jul-28 13:33N 55°42' E 015°19'1212.5
2014-Jul-28 12:33N 55°48' E 015°38'1312.7
2014-Jul-28 11:33N 55°54' E 015°58'1312.5
2014-Jul-28 10:33N 56°00' E 016°17'1812.3
2014-Jul-28 09:07N 56°10' E 016°43'812.3
2014-Jul-28 08:26N 56°18' E 016°49'1212.6
2014-Jul-28 07:27N 56°29' E 016°58'2512.2
2014-Jul-28 05:23N 56°53' E 017°16'1012.1
2014-Jul-28 04:33N 57°02' E 017°23'1212.0
2014-Jul-28 03:33N 57°13' E 017°31'1211.7
2014-Jul-28 02:33N 57°24' E 017°39'4711.7
2014-Jul-27 22:32N 58°06' E 018°20'1611.6
2014-Jul-27 21:11N 58°19' E 018°35'  
2014-Jul-23 02:28N 59°49' E 019°42'1712.4
2014-Jul-23 01:07N 59°37' E 020°04'4111.5
2014-Jul-22 21:33N 58°59' E 019°32'3112.4
2014-Jul-22 19:04N 58°33' E 019°01'612.1
2014-Jul-22 18:33N 58°28' E 018°55'2512.2
2014-Jul-22 16:30N 58°06' E 018°31'1212.1
2014-Jul-22 15:33N 57°56' E 018°20'1212.1
2014-Jul-22 14:33N 57°46' E 018°08'1211.9
2014-Jul-22 13:33N 57°36' E 017°57'1211.9
2014-Jul-22 12:34N 57°25' E 017°46'1212.1
2014-Jul-22 11:33N 57°14' E 017°37'1212.2
2014-Jul-22 10:33N 57°03' E 017°28'1212.5
2014-Jul-22 09:33N 56°52' E 017°18'1212.5
2014-Jul-22 08:33N 56°40' E 017°09'1412.3
2014-Jul-22 07:27N 56°28' E 016°60'1212.1
2014-Jul-22 06:29N 56°17' E 016°53'1111.9
2014-Jul-22 05:33N 56°06' E 016°48'1111.6
2014-Jul-22 04:33N 55°59' E 016°31'1211.6
2014-Jul-22 03:33N 55°53' E 016°14'1211.4
2014-Jul-22 02:31N 55°48' E 015°55'1111.3
2014-Jul-22 01:33N 55°42' E 015°38'1211.6
2014-Jul-22 00:33N 55°36' E 015°21'1211.6
2014-Jul-21 23:33N 55°30' E 015°03'1211.8
2014-Jul-21 22:33N 55°24' E 014°45'1211.7
2014-Jul-21 21:33N 55°16' E 014°30'1211.8
2014-Jul-21 20:33N 55°08' E 014°16'312.1
2014-Jul-21 20:18N 55°05' E 014°13'911.9
2014-Jul-21 19:33N 55°00' E 013°60'1411.7
2014-Jul-21 18:22N 54°55' E 013°38'1011.7
2014-Jul-21 17:32N 54°51' E 013°22'1111.2
2014-Jul-21 16:33N 54°46' E 013°05'1111.3
2014-Jul-21 15:33N 54°41' E 012°47'1111.3
2014-Jul-21 14:33N 54°35' E 012°30'1110.8
2014-Jul-21 13:33N 54°29' E 012°15'10 9.7
2014-Jul-21 12:33N 54°25' E 012°00'1110.5
2014-Jul-21 11:33N 54°26' E 011°42'1110.7
2014-Jul-21 10:33N 54°30' E 011°25'1010.2
2014-Jul-21 09:33N 54°34' E 011°09'1111.3
2014-Jul-21 08:34N 54°33' E 010°49'47 7.5
2014-Jul-21 02:21N 54°14' E 009°36'10 8.5
2014-Jul-21 01:09N 54°09' E 009°21'6 8.5
2014-Jul-21 00:28N 54°03' E 009°18'7 7.8
2014-Jul-20 23:33N 53°56' E 009°13'4 4.0
2014-Jul-20 22:33N 53°54' E 009°09'1 1.3
2014-Jul-20 21:32N 53°53' E 009°07'9 9.3
2014-Jul-20 20:33N 53°50' E 008°52'1111.0
2014-Jul-20 19:33N 53°57' E 008°37'1211.5
2014-Jul-20 18:33N 53°59' E 008°18'6613.1
2014-Jul-20 13:31N 53°45' E 006°29'1313.6
2014-Jul-20 12:33N 53°41' E 006°07'1313.5
2014-Jul-20 11:34N 53°37' E 005°46'1313.4
2014-Jul-20 10:33N 53°33' E 005°24'1313.2
2014-Jul-20 09:34N 53°29' E 005°03'2511.8
2014-Jul-20 07:25N 53°11' E 004°33'2311.8
2014-Jul-20 05:25N 52°51' E 004°13'1011.4
2014-Jul-20 04:31N 52°43' E 004°02'7111.5
2014-Jul-19 22:23N 51°50' E 002°44'2413.3
2014-Jul-19 20:33N 51°31' E 002°20'1313.5
2014-Jul-19 19:34N 51°20' E 002°09'  

Dump ship's entire track history